sensor_id;sensor_type;location;lat;lon;timestamp;P1;durP1;ratioP1;P2;durP2;ratioP2
52614;SDS011;38508;53.158;6.614;2022-11-20T11:23:01;11.50;;;6.65;;
52614;SDS011;38508;53.158;6.614;2022-11-20T11:25:31;12.02;;;6.38;;
52614;SDS011;38508;53.158;6.614;2022-11-20T11:28:04;12.80;;;6.78;;
52614;SDS011;38508;53.158;6.614;2022-11-20T11:30:43;10.82;;;6.25;;
52614;SDS011;38508;53.158;6.614;2022-11-20T11:33:11;12.10;;;6.97;;
52614;SDS011;38508;53.158;6.614;2022-11-20T11:35:45;11.02;;;6.53;;
52614;SDS011;38508;53.158;6.614;2022-11-20T11:38:19;11.93;;;7.13;;
52614;SDS011;38508;53.158;6.614;2022-11-20T11:40:55;12.25;;;7.28;;
52614;SDS011;38508;53.158;6.614;2022-11-20T11:43:22;13.30;;;7.25;;
52614;SDS011;38508;53.158;6.614;2022-11-20T11:46:22;13.65;;;7.35;;
52614;SDS011;38508;53.158;6.614;2022-11-20T11:54:10;11.60;;;7.20;;
52614;SDS011;38508;53.158;6.614;2022-11-20T11:56:44;13.18;;;7.13;;
52614;SDS011;38508;53.158;6.614;2022-11-20T11:59:12;12.88;;;6.75;;
52614;SDS011;38508;53.158;6.614;2022-11-20T12:01:53;12.55;;;7.28;;
52614;SDS011;38508;53.158;6.614;2022-11-20T12:04:37;11.20;;;6.95;;
52614;SDS011;38508;53.158;6.614;2022-11-20T12:10:09;10.57;;;6.47;;
52614;SDS011;38508;53.158;6.614;2022-11-20T12:12:45;10.55;;;6.03;;
52614;SDS011;38508;53.158;6.614;2022-11-20T12:15:23;11.40;;;5.57;;
52614;SDS011;38508;53.158;6.614;2022-11-20T12:17:51;11.02;;;5.90;;
52614;SDS011;38508;53.158;6.614;2022-11-20T12:20:17;8.68;;;5.75;;
52614;SDS011;38508;53.158;6.614;2022-11-20T12:22:53;8.02;;;4.85;;
52614;SDS011;38508;53.158;6.614;2022-11-20T12:25:28;9.15;;;5.25;;
52614;SDS011;38508;53.158;6.614;2022-11-20T12:30:47;10.20;;;4.20;;
52614;SDS011;38508;53.158;6.614;2022-11-20T12:33:45;7.78;;;4.18;;
52614;SDS011;38508;53.158;6.614;2022-11-20T12:36:40;7.20;;;3.42;;
52614;SDS011;38508;53.158;6.614;2022-11-20T12:39:39;5.10;;;3.20;;
52614;SDS011;38508;53.158;6.614;2022-11-20T12:45:22;5.72;;;3.40;;
52614;SDS011;38508;53.158;6.614;2022-11-20T12:51:01;6.05;;;3.65;;
52614;SDS011;38508;53.158;6.614;2022-11-20T13:05:31;6.97;;;3.88;;
52614;SDS011;38508;53.158;6.614;2022-11-20T13:08:32;6.97;;;4.10;;
52614;SDS011;38508;53.158;6.614;2022-11-20T13:11:01;6.53;;;3.88;;
52614;SDS011;38508;53.158;6.614;2022-11-20T13:19:14;8.27;;;4.25;;
52614;SDS011;38508;53.158;6.614;2022-11-20T13:21:42;10.77;;;5.13;;
52614;SDS011;38508;53.158;6.614;2022-11-20T13:27:33;8.75;;;4.93;;
52614;SDS011;38508;53.158;6.614;2022-11-20T13:29:37;9.10;;;4.85;;
52614;SDS011;38508;53.158;6.614;2022-11-20T13:32:15;9.07;;;5.07;;
52614;SDS011;38508;53.158;6.614;2022-11-20T13:34:56;9.82;;;4.63;;
52614;SDS011;38508;53.158;6.614;2022-11-20T13:40:12;9.18;;;4.78;;
52614;SDS011;38508;53.158;6.614;2022-11-20T13:42:45;9.43;;;4.82;;
52614;SDS011;38508;53.158;6.614;2022-11-20T13:47:52;7.55;;;4.80;;
52614;SDS011;38508;53.158;6.614;2022-11-20T13:50:19;8.60;;;4.82;;
52614;SDS011;38508;53.158;6.614;2022-11-20T13:58:07;9.35;;;5.18;;
52614;SDS011;38508;53.158;6.614;2022-11-20T14:00:48;9.00;;;5.45;;
52614;SDS011;38508;53.158;6.614;2022-11-20T14:03:23;8.82;;;5.28;;
52614;SDS011;38508;53.158;6.614;2022-11-20T14:05:54;10.13;;;5.25;;
52614;SDS011;38508;53.158;6.614;2022-11-20T14:08:26;8.65;;;4.85;;
52614;SDS011;38508;53.158;6.614;2022-11-20T14:11:03;8.60;;;5.10;;
52614;SDS011;38508;53.158;6.614;2022-11-20T14:16:29;8.20;;;4.80;;
52614;SDS011;38508;53.158;6.614;2022-11-20T14:18:57;8.30;;;4.93;;
52614;SDS011;38508;53.158;6.614;2022-11-20T14:21:46;9.63;;;5.43;;
52614;SDS011;38508;53.158;6.614;2022-11-20T14:24:13;10.73;;;5.75;;
52614;SDS011;38508;53.158;6.614;2022-11-20T14:26:43;8.43;;;5.43;;
52614;SDS011;38508;53.158;6.614;2022-11-20T14:29:12;9.88;;;5.30;;
52614;SDS011;38508;53.158;6.614;2022-11-20T14:31:40;9.85;;;5.72;;
52614;SDS011;38508;53.158;6.614;2022-11-20T14:34:12;10.25;;;5.63;;
52614;SDS011;38508;53.158;6.614;2022-11-20T14:36:42;9.63;;;5.57;;
52614;SDS011;38508;53.158;6.614;2022-11-20T14:39:10;10.73;;;5.38;;
52614;SDS011;38508;53.158;6.614;2022-11-20T14:41:50;10.02;;;5.43;;
52614;SDS011;38508;53.158;6.614;2022-11-20T14:44:17;9.25;;;5.30;;
52614;SDS011;38508;53.158;6.614;2022-11-20T14:46:42;11.55;;;5.53;;
52614;SDS011;38508;53.158;6.614;2022-11-20T14:49:08;10.80;;;5.90;;
52614;SDS011;38508;53.158;6.614;2022-11-20T14:51:37;11.20;;;5.80;;
52614;SDS011;38508;53.158;6.614;2022-11-20T14:54:14;10.23;;;5.72;;
52614;SDS011;38508;53.158;6.614;2022-11-20T14:56:41;11.93;;;6.07;;
52614;SDS011;38508;53.158;6.614;2022-11-20T14:59:22;13.73;;;6.35;;
52614;SDS011;38508;53.158;6.614;2022-11-20T15:01:56;10.70;;;5.60;;
52614;SDS011;38508;53.158;6.614;2022-11-20T15:04:24;11.95;;;5.97;;
52614;SDS011;38508;53.158;6.614;2022-11-20T15:06:52;11.35;;;5.82;;
52614;SDS011;38508;53.158;6.614;2022-11-20T15:09:21;10.65;;;6.25;;
52614;SDS011;38508;53.158;6.614;2022-11-20T15:12:05;11.48;;;6.50;;
52614;SDS011;38508;53.158;6.614;2022-11-20T15:14:31;11.32;;;6.18;;
52614;SDS011;38508;53.158;6.614;2022-11-20T15:16:59;11.50;;;6.43;;
52614;SDS011;38508;53.158;6.614;2022-11-20T15:19:25;13.20;;;7.00;;
52614;SDS011;38508;53.158;6.614;2022-11-20T15:21:52;14.00;;;7.60;;
52614;SDS011;38508;53.158;6.614;2022-11-20T15:24:18;12.75;;;6.57;;
52614;SDS011;38508;53.158;6.614;2022-11-20T15:26:44;15.35;;;8.00;;
52614;SDS011;38508;53.158;6.614;2022-11-20T15:29:11;15.55;;;7.22;;
52614;SDS011;38508;53.158;6.614;2022-11-20T15:31:38;14.60;;;7.20;;
52614;SDS011;38508;53.158;6.614;2022-11-20T15:34:12;13.02;;;6.95;;
52614;SDS011;38508;53.158;6.614;2022-11-20T15:36:48;11.93;;;6.82;;
52614;SDS011;38508;53.158;6.614;2022-11-20T15:39:14;13.35;;;6.50;;
52614;SDS011;38508;53.158;6.614;2022-11-20T15:41:39;12.65;;;6.78;;
52614;SDS011;38508;53.158;6.614;2022-11-20T15:44:05;15.25;;;7.78;;
52614;SDS011;38508;53.158;6.614;2022-11-20T15:46:32;13.52;;;6.75;;
52614;SDS011;38508;53.158;6.614;2022-11-20T15:49:03;13.73;;;7.70;;
52614;SDS011;38508;53.158;6.614;2022-11-20T15:51:31;14.18;;;7.90;;
52614;SDS011;38508;53.158;6.614;2022-11-20T15:54:09;14.73;;;8.00;;
52614;SDS011;38508;53.158;6.614;2022-11-20T15:56:38;12.20;;;7.03;;
52614;SDS011;38508;53.158;6.614;2022-11-20T15:59:04;16.45;;;8.18;;
52614;SDS011;38508;53.158;6.614;2022-11-20T16:01:29;14.55;;;8.02;;
52614;SDS011;38508;53.158;6.614;2022-11-20T16:03:55;16.75;;;8.43;;
52614;SDS011;38508;53.158;6.614;2022-11-20T16:06:21;15.52;;;8.15;;
52614;SDS011;38508;53.158;6.614;2022-11-20T16:08:47;16.55;;;8.20;;
52614;SDS011;38508;53.158;6.614;2022-11-20T16:11:13;14.25;;;8.13;;
52614;SDS011;38508;53.158;6.614;2022-11-20T16:13:40;17.48;;;9.25;;
52614;SDS011;38508;53.158;6.614;2022-11-20T16:16:26;19.90;;;9.63;;
52614;SDS011;38508;53.158;6.614;2022-11-20T16:18:55;18.48;;;8.77;;
52614;SDS011;38508;53.158;6.614;2022-11-20T16:21:21;17.00;;;8.52;;
52614;SDS011;38508;53.158;6.614;2022-11-20T16:23:53;18.15;;;8.90;;
52614;SDS011;38508;53.158;6.614;2022-11-20T16:26:18;16.63;;;8.68;;
52614;SDS011;38508;53.158;6.614;2022-11-20T16:28:45;15.23;;;8.35;;
52614;SDS011;38508;53.158;6.614;2022-11-20T16:31:16;19.67;;;9.73;;
52614;SDS011;38508;53.158;6.614;2022-11-20T16:33:42;16.83;;;8.45;;
52614;SDS011;38508;53.158;6.614;2022-11-20T16:36:14;21.08;;;10.70;;
52614;SDS011;38508;53.158;6.614;2022-11-20T16:38:40;16.67;;;8.82;;
52614;SDS011;38508;53.158;6.614;2022-11-20T16:41:06;21.05;;;10.23;;
52614;SDS011;38508;53.158;6.614;2022-11-20T16:46:14;18.63;;;9.52;;
52614;SDS011;38508;53.158;6.614;2022-11-20T16:48:41;22.45;;;9.70;;
52614;SDS011;38508;53.158;6.614;2022-11-20T16:51:10;16.00;;;8.68;;
52614;SDS011;38508;53.158;6.614;2022-11-20T16:53:36;16.98;;;9.55;;
52614;SDS011;38508;53.158;6.614;2022-11-20T16:56:13;17.27;;;9.50;;
52614;SDS011;38508;53.158;6.614;2022-11-20T16:58:41;16.30;;;9.20;;
52614;SDS011;38508;53.158;6.614;2022-11-20T17:01:08;16.08;;;8.43;;
52614;SDS011;38508;53.158;6.614;2022-11-20T17:03:41;15.63;;;8.10;;
52614;SDS011;38508;53.158;6.614;2022-11-20T17:06:16;16.08;;;8.50;;
52614;SDS011;38508;53.158;6.614;2022-11-20T17:08:43;13.20;;;7.82;;
52614;SDS011;38508;53.158;6.614;2022-11-20T17:11:10;15.02;;;7.90;;
52614;SDS011;38508;53.158;6.614;2022-11-20T17:13:37;15.35;;;8.40;;
52614;SDS011;38508;53.158;6.614;2022-11-20T17:16:05;17.83;;;8.23;;
52614;SDS011;38508;53.158;6.614;2022-11-20T17:18:32;18.08;;;8.70;;
52614;SDS011;38508;53.158;6.614;2022-11-20T17:20:58;16.38;;;8.80;;
52614;SDS011;38508;53.158;6.614;2022-11-20T17:23:29;15.30;;;8.82;;
52614;SDS011;38508;53.158;6.614;2022-11-20T17:28:53;18.75;;;9.50;;
52614;SDS011;38508;53.158;6.614;2022-11-20T17:31:48;17.80;;;9.27;;
52614;SDS011;38508;53.158;6.614;2022-11-20T17:34:14;17.65;;;10.23;;
52614;SDS011;38508;53.158;6.614;2022-11-20T17:36:41;16.45;;;9.27;;
52614;SDS011;38508;53.158;6.614;2022-11-20T17:39:18;15.85;;;9.48;;
52614;SDS011;38508;53.158;6.614;2022-11-20T17:41:44;17.38;;;9.45;;
52614;SDS011;38508;53.158;6.614;2022-11-20T17:44:30;17.00;;;9.80;;
52614;SDS011;38508;53.158;6.614;2022-11-20T17:46:55;19.23;;;9.52;;
52614;SDS011;38508;53.158;6.614;2022-11-20T17:49:21;17.48;;;8.65;;
52614;SDS011;38508;53.158;6.614;2022-11-20T17:51:47;17.80;;;9.00;;
52614;SDS011;38508;53.158;6.614;2022-11-20T17:54:12;16.63;;;9.43;;
52614;SDS011;38508;53.158;6.614;2022-11-20T17:56:38;21.23;;;9.10;;
52614;SDS011;38508;53.158;6.614;2022-11-20T17:59:22;16.25;;;9.38;;
52614;SDS011;38508;53.158;6.614;2022-11-20T18:01:48;19.13;;;9.98;;
52614;SDS011;38508;53.158;6.614;2022-11-20T18:04:13;19.13;;;9.98;;
52614;SDS011;38508;53.158;6.614;2022-11-20T18:06:41;19.17;;;9.13;;
52614;SDS011;38508;53.158;6.614;2022-11-20T18:09:06;21.88;;;10.98;;
52614;SDS011;38508;53.158;6.614;2022-11-20T18:11:36;17.92;;;9.52;;
52614;SDS011;38508;53.158;6.614;2022-11-20T18:14:04;21.75;;;10.73;;
52614;SDS011;38508;53.158;6.614;2022-11-20T18:16:51;19.60;;;9.98;;
52614;SDS011;38508;53.158;6.614;2022-11-20T18:19:19;21.67;;;9.77;;
52614;SDS011;38508;53.158;6.614;2022-11-20T18:21:47;19.05;;;10.38;;
52614;SDS011;38508;53.158;6.614;2022-11-20T18:24:13;19.52;;;10.60;;
52614;SDS011;38508;53.158;6.614;2022-11-20T18:26:39;16.90;;;9.50;;
52614;SDS011;38508;53.158;6.614;2022-11-20T18:29:05;18.42;;;10.98;;
52614;SDS011;38508;53.158;6.614;2022-11-20T18:31:31;21.00;;;11.18;;
52614;SDS011;38508;53.158;6.614;2022-11-20T18:33:57;19.73;;;10.77;;
52614;SDS011;38508;53.158;6.614;2022-11-20T18:36:26;18.40;;;10.48;;
52614;SDS011;38508;53.158;6.614;2022-11-20T18:38:54;19.13;;;9.43;;
52614;SDS011;38508;53.158;6.614;2022-11-20T18:41:25;19.77;;;10.30;;
52614;SDS011;38508;53.158;6.614;2022-11-20T18:44:16;19.73;;;10.20;;
52614;SDS011;38508;53.158;6.614;2022-11-20T18:47:05;17.90;;;10.20;;
52614;SDS011;38508;53.158;6.614;2022-11-20T18:49:32;20.48;;;10.57;;
52614;SDS011;38508;53.158;6.614;2022-11-20T18:51:58;18.52;;;9.98;;
52614;SDS011;38508;53.158;6.614;2022-11-20T18:54:24;21.48;;;10.95;;
52614;SDS011;38508;53.158;6.614;2022-11-20T18:56:49;16.88;;;10.15;;
52614;SDS011;38508;53.158;6.614;2022-11-20T18:59:16;20.45;;;11.10;;
52614;SDS011;38508;53.158;6.614;2022-11-20T19:01:43;17.90;;;9.90;;
52614;SDS011;38508;53.158;6.614;2022-11-20T19:04:10;24.45;;;11.13;;
52614;SDS011;38508;53.158;6.614;2022-11-20T19:06:39;19.75;;;11.00;;
52614;SDS011;38508;53.158;6.614;2022-11-20T19:09:06;21.88;;;11.55;;
52614;SDS011;38508;53.158;6.614;2022-11-20T19:11:33;23.98;;;11.45;;
52614;SDS011;38508;53.158;6.614;2022-11-20T19:14:00;20.35;;;11.50;;
52614;SDS011;38508;53.158;6.614;2022-11-20T19:16:26;23.35;;;11.52;;
52614;SDS011;38508;53.158;6.614;2022-11-20T19:18:51;21.85;;;11.75;;
52614;SDS011;38508;53.158;6.614;2022-11-20T19:21:18;22.60;;;11.88;;
52614;SDS011;38508;53.158;6.614;2022-11-20T19:23:49;21.25;;;11.35;;
52614;SDS011;38508;53.158;6.614;2022-11-20T19:26:16;22.52;;;12.52;;
52614;SDS011;38508;53.158;6.614;2022-11-20T19:28:42;21.42;;;12.63;;
52614;SDS011;38508;53.158;6.614;2022-11-20T19:31:09;22.65;;;11.68;;
52614;SDS011;38508;53.158;6.614;2022-11-20T19:33:38;21.33;;;11.65;;
52614;SDS011;38508;53.158;6.614;2022-11-20T19:36:23;22.98;;;11.88;;
52614;SDS011;38508;53.158;6.614;2022-11-20T19:38:54;24.77;;;12.15;;
52614;SDS011;38508;53.158;6.614;2022-11-20T19:41:25;21.70;;;11.98;;
52614;SDS011;38508;53.158;6.614;2022-11-20T19:44:06;23.37;;;12.10;;
52614;SDS011;38508;53.158;6.614;2022-11-20T19:46:34;24.70;;;12.73;;
52614;SDS011;38508;53.158;6.614;2022-11-20T19:49:00;26.02;;;13.50;;
52614;SDS011;38508;53.158;6.614;2022-11-20T19:51:27;27.77;;;13.18;;
52614;SDS011;38508;53.158;6.614;2022-11-20T19:53:55;28.23;;;13.50;;
52614;SDS011;38508;53.158;6.614;2022-11-20T19:56:21;29.33;;;13.55;;
52614;SDS011;38508;53.158;6.614;2022-11-20T19:58:48;26.27;;;13.32;;
52614;SDS011;38508;53.158;6.614;2022-11-20T20:01:18;26.40;;;13.30;;
52614;SDS011;38508;53.158;6.614;2022-11-20T20:03:45;29.42;;;13.63;;
52614;SDS011;38508;53.158;6.614;2022-11-20T20:06:13;27.60;;;13.75;;
52614;SDS011;38508;53.158;6.614;2022-11-20T20:08:40;32.45;;;14.18;;
52614;SDS011;38508;53.158;6.614;2022-11-20T20:11:10;28.70;;;14.68;;
52614;SDS011;38508;53.158;6.614;2022-11-20T20:13:36;29.55;;;14.50;;
52614;SDS011;38508;53.158;6.614;2022-11-20T20:16:04;25.23;;;13.20;;
52614;SDS011;38508;53.158;6.614;2022-11-20T20:18:31;26.70;;;13.23;;
52614;SDS011;38508;53.158;6.614;2022-11-20T20:21:00;23.77;;;12.65;;
52614;SDS011;38508;53.158;6.614;2022-11-20T20:23:27;26.67;;;12.60;;
52614;SDS011;38508;53.158;6.614;2022-11-20T20:25:53;24.38;;;12.07;;
52614;SDS011;38508;53.158;6.614;2022-11-20T20:28:19;22.50;;;11.48;;
52614;SDS011;38508;53.158;6.614;2022-11-20T20:30:44;24.90;;;12.00;;
52614;SDS011;38508;53.158;6.614;2022-11-20T20:33:10;21.98;;;11.43;;
52614;SDS011;38508;53.158;6.614;2022-11-20T20:35:39;26.13;;;12.52;;
52614;SDS011;38508;53.158;6.614;2022-11-20T20:38:05;22.15;;;11.95;;
52614;SDS011;38508;53.158;6.614;2022-11-20T20:40:31;21.98;;;11.55;;
52614;SDS011;38508;53.158;6.614;2022-11-20T20:42:57;21.80;;;11.38;;
52614;SDS011;38508;53.158;6.614;2022-11-20T20:45:23;24.73;;;12.93;;
52614;SDS011;38508;53.158;6.614;2022-11-20T20:47:48;23.27;;;12.38;;
52614;SDS011;38508;53.158;6.614;2022-11-20T20:50:14;25.80;;;12.88;;
52614;SDS011;38508;53.158;6.614;2022-11-20T20:52:40;24.95;;;13.02;;
52614;SDS011;38508;53.158;6.614;2022-11-20T20:55:06;25.58;;;12.23;;
52614;SDS011;38508;53.158;6.614;2022-11-20T20:57:32;22.52;;;11.93;;
52614;SDS011;38508;53.158;6.614;2022-11-20T20:59:58;26.88;;;12.82;;
52614;SDS011;38508;53.158;6.614;2022-11-20T21:02:24;31.05;;;14.70;;
52614;SDS011;38508;53.158;6.614;2022-11-20T21:04:50;26.20;;;12.60;;
52614;SDS011;38508;53.158;6.614;2022-11-20T21:07:16;27.95;;;13.77;;
52614;SDS011;38508;53.158;6.614;2022-11-20T21:09:42;28.88;;;13.95;;
52614;SDS011;38508;53.158;6.614;2022-11-20T21:12:08;30.05;;;14.30;;
52614;SDS011;38508;53.158;6.614;2022-11-20T21:14:33;27.20;;;13.57;;
52614;SDS011;38508;53.158;6.614;2022-11-20T21:16:59;26.88;;;13.70;;
52614;SDS011;38508;53.158;6.614;2022-11-20T21:19:25;26.45;;;13.63;;
52614;SDS011;38508;53.158;6.614;2022-11-20T21:21:51;31.52;;;13.77;;
52614;SDS011;38508;53.158;6.614;2022-11-20T21:24:23;26.98;;;13.77;;
52614;SDS011;38508;53.158;6.614;2022-11-20T21:26:50;27.77;;;13.65;;
52614;SDS011;38508;53.158;6.614;2022-11-20T21:29:22;30.98;;;14.05;;
52614;SDS011;38508;53.158;6.614;2022-11-20T21:31:49;27.80;;;13.93;;
52614;SDS011;38508;53.158;6.614;2022-11-20T21:34:16;27.48;;;13.43;;
52614;SDS011;38508;53.158;6.614;2022-11-20T21:36:43;25.00;;;13.13;;
52614;SDS011;38508;53.158;6.614;2022-11-20T21:39:10;26.65;;;13.55;;
52614;SDS011;38508;53.158;6.614;2022-11-20T21:41:36;26.15;;;13.50;;
52614;SDS011;38508;53.158;6.614;2022-11-20T21:44:03;24.90;;;13.55;;
52614;SDS011;38508;53.158;6.614;2022-11-20T21:46:30;27.63;;;13.57;;
52614;SDS011;38508;53.158;6.614;2022-11-20T21:48:57;25.45;;;13.30;;
52614;SDS011;38508;53.158;6.614;2022-11-20T21:51:24;27.17;;;13.07;;
52614;SDS011;38508;53.158;6.614;2022-11-20T21:53:52;24.58;;;13.18;;
52614;SDS011;38508;53.158;6.614;2022-11-20T21:56:19;25.58;;;13.13;;
52614;SDS011;38508;53.158;6.614;2022-11-20T21:58:47;26.65;;;13.80;;
52614;SDS011;38508;53.158;6.614;2022-11-20T22:01:14;26.48;;;13.40;;
52614;SDS011;38508;53.158;6.614;2022-11-20T22:03:41;24.83;;;12.82;;
52614;SDS011;38508;53.158;6.614;2022-11-20T22:06:10;25.63;;;13.13;;
52614;SDS011;38508;53.158;6.614;2022-11-20T22:08:37;25.92;;;13.18;;
52614;SDS011;38508;53.158;6.614;2022-11-20T22:11:06;31.27;;;14.25;;
52614;SDS011;38508;53.158;6.614;2022-11-20T22:13:38;25.55;;;14.38;;
52614;SDS011;38508;53.158;6.614;2022-11-20T22:16:22;26.15;;;13.30;;
52614;SDS011;38508;53.158;6.614;2022-11-20T22:18:49;28.58;;;13.75;;
52614;SDS011;38508;53.158;6.614;2022-11-20T22:21:16;26.67;;;14.05;;
52614;SDS011;38508;53.158;6.614;2022-11-20T22:23:43;25.77;;;12.40;;
52614;SDS011;38508;53.158;6.614;2022-11-20T22:26:10;24.77;;;13.27;;
52614;SDS011;38508;53.158;6.614;2022-11-20T22:28:37;24.52;;;12.85;;
52614;SDS011;38508;53.158;6.614;2022-11-20T22:31:04;25.27;;;13.25;;
52614;SDS011;38508;53.158;6.614;2022-11-20T22:33:35;26.83;;;13.10;;
52614;SDS011;38508;53.158;6.614;2022-11-20T22:36:02;27.42;;;14.48;;
52614;SDS011;38508;53.158;6.614;2022-11-20T22:38:28;27.65;;;13.77;;
52614;SDS011;38508;53.158;6.614;2022-11-20T22:41:01;27.60;;;14.15;;
52614;SDS011;38508;53.158;6.614;2022-11-20T22:43:34;26.10;;;13.40;;
52614;SDS011;38508;53.158;6.614;2022-11-20T22:46:02;27.92;;;13.82;;
52614;SDS011;38508;53.158;6.614;2022-11-20T22:48:50;25.13;;;13.70;;
52614;SDS011;38508;53.158;6.614;2022-11-20T22:51:20;25.48;;;13.13;;
52614;SDS011;38508;53.158;6.614;2022-11-20T22:53:48;24.52;;;12.75;;
52614;SDS011;38508;53.158;6.614;2022-11-20T22:56:14;28.80;;;14.18;;
52614;SDS011;38508;53.158;6.614;2022-11-20T22:58:41;29.30;;;13.95;;
52614;SDS011;38508;53.158;6.614;2022-11-20T23:03:49;25.75;;;13.50;;
52614;SDS011;38508;53.158;6.614;2022-11-20T23:06:16;25.48;;;13.68;;
52614;SDS011;38508;53.158;6.614;2022-11-20T23:08:43;25.67;;;13.07;;
52614;SDS011;38508;53.158;6.614;2022-11-20T23:11:13;26.27;;;13.38;;
52614;SDS011;38508;53.158;6.614;2022-11-20T23:13:41;30.75;;;14.23;;
52614;SDS011;38508;53.158;6.614;2022-11-20T23:16:11;27.20;;;14.20;;
52614;SDS011;38508;53.158;6.614;2022-11-20T23:18:38;26.58;;;13.30;;
52614;SDS011;38508;53.158;6.614;2022-11-20T23:21:05;24.13;;;13.68;;
52614;SDS011;38508;53.158;6.614;2022-11-20T23:23:33;24.88;;;13.57;;
52614;SDS011;38508;53.158;6.614;2022-11-20T23:26:00;24.27;;;13.48;;
52614;SDS011;38508;53.158;6.614;2022-11-20T23:28:26;25.95;;;13.65;;
52614;SDS011;38508;53.158;6.614;2022-11-20T23:30:52;26.70;;;13.75;;
52614;SDS011;38508;53.158;6.614;2022-11-20T23:33:18;26.48;;;13.48;;
52614;SDS011;38508;53.158;6.614;2022-11-20T23:35:46;26.85;;;13.60;;
52614;SDS011;38508;53.158;6.614;2022-11-20T23:38:12;27.83;;;14.52;;
52614;SDS011;38508;53.158;6.614;2022-11-20T23:40:38;22.80;;;12.60;;
52614;SDS011;38508;53.158;6.614;2022-11-20T23:43:03;22.90;;;12.85;;
52614;SDS011;38508;53.158;6.614;2022-11-20T23:45:42;25.20;;;13.27;;
52614;SDS011;38508;53.158;6.614;2022-11-20T23:48:09;26.48;;;13.45;;
52614;SDS011;38508;53.158;6.614;2022-11-20T23:50:35;27.50;;;13.23;;
52614;SDS011;38508;53.158;6.614;2022-11-20T23:53:00;24.80;;;13.43;;
52614;SDS011;38508;53.158;6.614;2022-11-20T23:55:26;27.33;;;13.52;;
52614;SDS011;38508;53.158;6.614;2022-11-20T23:57:52;27.92;;;14.27;;
